Phaedra — D5JD2 — position and weather

sailwx.info

Track history (hours):
 
Tides and Currents Weather Stations Pressure Air Temp Water Temp Dewpoint Dewpoint Depression Visibility Wind Speed Wind Dir Waves Ship Positions

Phaedra

Last reported at 2018-May-23 10:56 UTC. Time now 2018-May-23 11:09 UTC.
Position N 52°35' E 002°15'.

Length 229 m; draft 7.9 m.

Type: Cargo ship. MMSI: 636017064.

Date/timePositionNaut miles runAvg speedWind from/ knotsBaromVisibWave heightAir tempDewpointWater temp
2018-May-23 10:56N 52°35' E 002°15'511.7
2018-May-23 10:30N 52°40' E 002°14'611.0
2018-May-23 09:57N 52°46' E 002°11'511.3
2018-May-23 09:30N 52°50' E 002°06'611.0
2018-May-23 09:00N 52°54' E 001°60'611.0
2018-May-23 08:30N 52°57' E 001°53'510.5
2018-May-23 08:00N 52°60' E 001°45'510.6
2018-May-23 07:30N 53°03' E 001°38'611.0
2018-May-23 07:00N 53°06' E 001°31'611.2
2018-May-23 06:30N 53°10' E 001°24'611.2
2018-May-23 06:00N 53°14' E 001°17'611.4
2018-May-23 05:30N 53°19' E 001°12'611.8
2018-May-23 05:00N 53°24' E 001°07'811.6
2018-May-23 04:20N 53°29' E 000°58'411.5
2018-May-23 03:58N 53°32' E 000°52'  
2018-May-16 03:01N 54°42' W 001°05'0 6.4
2018-May-16 03:00N 54°42' W 001°05'3 6.4
2018-May-16 02:28N 54°44' W 000°59'2311.6
2018-May-16 00:29N 54°45' W 000°20'612.1
2018-May-16 00:00N 54°44' W 000°10'612.0
2018-May-15 23:30N 54°44' E 000°01'611.8
2018-May-15 23:00N 54°44' E 000°11'612.1
2018-May-15 22:30N 54°44' E 000°21'612.1
2018-May-15 22:00N 54°44' E 000°32'612.1
2018-May-15 21:30N 54°44' E 000°42'612.1
2018-May-15 21:00N 54°44' E 000°53'612.1
2018-May-15 20:30N 54°44' E 001°03'612.3
2018-May-15 20:00N 54°44' E 001°14'612.7
2018-May-15 19:30N 54°44' E 001°25'612.4
2018-May-15 19:00N 54°44' E 001°35'712.1
2018-May-15 18:25N 54°43' E 001°47'512.1
2018-May-15 18:00N 54°41' E 001°56'612.0
2018-May-15 17:30N 54°40' E 002°06'712.0
2018-May-15 16:54N 54°37' E 002°18'512.0
2018-May-15 16:30N 54°35' E 002°25'612.1
2018-May-15 15:59N 54°33' E 002°35'5710.6
2018-May-15 10:40N 53°40' E 003°10'311.8
2018-May-15 10:26N 53°38' E 003°07'511.6
2018-May-15 10:00N 53°33' E 003°03'611.5
2018-May-15 09:30N 53°28' E 002°59'510.9
2018-May-15 09:00N 53°23' E 002°55'510.9
2018-May-15 08:30N 53°18' E 002°51'510.7
2018-May-15 08:00N 53°13' E 002°47'610.6
2018-May-15 07:28N 53°08' E 002°44'610.7
2018-May-15 06:56N 53°03' E 002°40'6212.2
2018-May-15 01:53N 52°01' E 002°41'512.1
2018-May-15 01:29N 51°56' E 002°40'612.8
2018-May-15 01:00N 51°51' E 002°36'612.6
2018-May-15 00:29N 51°45' E 002°32'612.6
2018-May-15 00:00N 51°40' E 002°26'612.3
2018-May-14 23:30N 51°35' E 002°20'612.1
2018-May-14 23:00N 51°31' E 002°13'612.1
2018-May-14 22:30N 51°26' E 002°07'611.9
2018-May-14 22:01N 51°21' E 002°01'611.6
2018-May-14 21:30N 51°17' E 001°55'510.7
2018-May-14 21:00N 51°13' E 001°49'5 9.9
2018-May-14 20:31N 51°09' E 001°44'5 9.1
2018-May-14 20:00N 51°06' E 001°39'4 8.8
2018-May-14 19:30N 51°02' E 001°35'4 8.7
2018-May-14 19:00N 50°59' E 001°32'4 8.7
2018-May-14 18:30N 50°55' E 001°29'48 9.3
2018-May-14 13:18N 50°25' E 000°29'310.9
2018-May-14 13:00N 50°24' E 000°24'510.9
2018-May-14 12:30N 50°22' E 000°16'511.0
2018-May-14 12:00N 50°21' E 000°08'611.4
2018-May-14 11:30N 50°20' W 000°01'611.6
2018-May-14 11:00N 50°18' W 000°09'611.8
2018-May-14 10:30N 50°16' W 000°18'612.3
2018-May-14 10:00N 50°15' W 000°28'613.0
2018-May-14 09:30N 50°13' W 000°37'713.7
2018-May-14 09:01N 50°11' W 000°47'714.4
2018-May-14 08:30N 50°09' W 000°58'815.0
2018-May-14 08:00N 50°07' W 001°10'715.3
2018-May-14 07:30N 50°05' W 001°21'815.5
2018-May-14 07:00N 50°03' W 001°33'815.7
2018-May-14 06:31N 50°01' W 001°45'815.9
2018-May-14 06:00N 49°59' W 001°57'815.4
2018-May-14 05:30N 49°57' W 002°08'714.3
2018-May-14 05:00N 49°55' W 002°19'813.6
2018-May-14 04:24N 49°53' W 002°31'813.1
2018-May-14 03:46N 49°50' W 002°44'512.7
2018-May-14 03:22N 49°49' W 002°51'412.3
2018-May-14 03:00N 49°47' W 002°57'611.8
2018-May-14 02:29N 49°44' W 003°05'611.6
2018-May-14 01:59N 49°41' W 003°13'511.1
2018-May-14 01:30N 49°38' W 003°20'610.9
2018-May-14 00:58N 49°35' W 003°28'510.8
2018-May-14 00:30N 49°33' W 003°35'7110.7
2018-May-13 17:54N 48°56' W 005°08'511.7
2018-May-13 17:28N 48°54' W 005°15'612.1
2018-May-13 16:58N 48°51' W 005°22'712.5
2018-May-13 16:25N 48°47' W 005°32'  
Track history (hours):
 
Tides and Currents Weather Stations Pressure Air Temp Water Temp Dewpoint Dewpoint Depression Visibility Wind Speed Wind Dir Waves Ship Positions

Phaedra

Last reported at 2018-May-23 10:56 UTC. Time now 2018-May-23 11:09 UTC.
Position N 52°35' E 002°15'.

Length 229 m; draft 7.9 m.

Type: Cargo ship. MMSI: 636017064.

Date/timePositionNaut miles runAvg speedWind from/ knotsBaromVisibWave heightAir tempDewpointWater temp
2018-May-23 10:56N 52°35' E 002°15'511.7
2018-May-23 10:30N 52°40' E 002°14'611.0
2018-May-23 09:57N 52°46' E 002°11'511.3
2018-May-23 09:30N 52°50' E 002°06'611.0
2018-May-23 09:00N 52°54' E 001°60'611.0
2018-May-23 08:30N 52°57' E 001°53'510.5
2018-May-23 08:00N 52°60' E 001°45'510.6
2018-May-23 07:30N 53°03' E 001°38'611.0
2018-May-23 07:00N 53°06' E 001°31'611.2
2018-May-23 06:30N 53°10' E 001°24'611.2
2018-May-23 06:00N 53°14' E 001°17'611.4
2018-May-23 05:30N 53°19' E 001°12'611.8
2018-May-23 05:00N 53°24' E 001°07'811.6
2018-May-23 04:20N 53°29' E 000°58'411.5
2018-May-23 03:58N 53°32' E 000°52'  
2018-May-16 03:01N 54°42' W 001°05'0 6.4
2018-May-16 03:00N 54°42' W 001°05'3 6.4
2018-May-16 02:28N 54°44' W 000°59'2311.6
2018-May-16 00:29N 54°45' W 000°20'612.1
2018-May-16 00:00N 54°44' W 000°10'612.0
2018-May-15 23:30N 54°44' E 000°01'611.8
2018-May-15 23:00N 54°44' E 000°11'612.1
2018-May-15 22:30N 54°44' E 000°21'612.1
2018-May-15 22:00N 54°44' E 000°32'612.1
2018-May-15 21:30N 54°44' E 000°42'612.1
2018-May-15 21:00N 54°44' E 000°53'612.1
2018-May-15 20:30N 54°44' E 001°03'612.3
2018-May-15 20:00N 54°44' E 001°14'612.7
2018-May-15 19:30N 54°44' E 001°25'612.4
2018-May-15 19:00N 54°44' E 001°35'712.1
2018-May-15 18:25N 54°43' E 001°47'512.1
2018-May-15 18:00N 54°41' E 001°56'612.0
2018-May-15 17:30N 54°40' E 002°06'712.0
2018-May-15 16:54N 54°37' E 002°18'512.0
2018-May-15 16:30N 54°35' E 002°25'612.1
2018-May-15 15:59N 54°33' E 002°35'5710.6
2018-May-15 10:40N 53°40' E 003°10'311.8
2018-May-15 10:26N 53°38' E 003°07'511.6
2018-May-15 10:00N 53°33' E 003°03'611.5
2018-May-15 09:30N 53°28' E 002°59'510.9
2018-May-15 09:00N 53°23' E 002°55'510.9
2018-May-15 08:30N 53°18' E 002°51'510.7
2018-May-15 08:00N 53°13' E 002°47'610.6
2018-May-15 07:28N 53°08' E 002°44'610.7
2018-May-15 06:56N 53°03' E 002°40'6212.2
2018-May-15 01:53N 52°01' E 002°41'512.1
2018-May-15 01:29N 51°56' E 002°40'612.8
2018-May-15 01:00N 51°51' E 002°36'612.6
2018-May-15 00:29N 51°45' E 002°32'612.6
2018-May-15 00:00N 51°40' E 002°26'612.3
2018-May-14 23:30N 51°35' E 002°20'612.1
2018-May-14 23:00N 51°31' E 002°13'612.1
2018-May-14 22:30N 51°26' E 002°07'611.9
2018-May-14 22:01N 51°21' E 002°01'611.6
2018-May-14 21:30N 51°17' E 001°55'510.7
2018-May-14 21:00N 51°13' E 001°49'5 9.9
2018-May-14 20:31N 51°09' E 001°44'5 9.1
2018-May-14 20:00N 51°06' E 001°39'4 8.8
2018-May-14 19:30N 51°02' E 001°35'4 8.7
2018-May-14 19:00N 50°59' E 001°32'4 8.7
2018-May-14 18:30N 50°55' E 001°29'48 9.3
2018-May-14 13:18N 50°25' E 000°29'310.9
2018-May-14 13:00N 50°24' E 000°24'510.9
2018-May-14 12:30N 50°22' E 000°16'511.0
2018-May-14 12:00N 50°21' E 000°08'611.4
2018-May-14 11:30N 50°20' W 000°01'611.6
2018-May-14 11:00N 50°18' W 000°09'611.8
2018-May-14 10:30N 50°16' W 000°18'612.3
2018-May-14 10:00N 50°15' W 000°28'613.0
2018-May-14 09:30N 50°13' W 000°37'713.7
2018-May-14 09:01N 50°11' W 000°47'714.4
2018-May-14 08:30N 50°09' W 000°58'815.0
2018-May-14 08:00N 50°07' W 001°10'715.3
2018-May-14 07:30N 50°05' W 001°21'815.5
2018-May-14 07:00N 50°03' W 001°33'815.7
2018-May-14 06:31N 50°01' W 001°45'815.9
2018-May-14 06:00N 49°59' W 001°57'815.4
2018-May-14 05:30N 49°57' W 002°08'714.3
2018-May-14 05:00N 49°55' W 002°19'813.6
2018-May-14 04:24N 49°53' W 002°31'813.1
2018-May-14 03:46N 49°50' W 002°44'512.7
2018-May-14 03:22N 49°49' W 002°51'412.3
2018-May-14 03:00N 49°47' W 002°57'611.8
2018-May-14 02:29N 49°44' W 003°05'611.6
2018-May-14 01:59N 49°41' W 003°13'511.1
2018-May-14 01:30N 49°38' W 003°20'610.9
2018-May-14 00:58N 49°35' W 003°28'510.8
2018-May-14 00:30N 49°33' W 003°35'7110.7
2018-May-13 17:54N 48°56' W 005°08'511.7
2018-May-13 17:28N 48°54' W 005°15'612.1
2018-May-13 16:58N 48°51' W 005°22'712.5
2018-May-13 16:25N 48°47' W 005°32'  

Dump ship's entire track history